createdAt,value
2023-04-27T00:00:21.707Z,64.03
2023-04-27T00:01:43.301Z,63.95
2023-04-27T00:02:45.053Z,63.87
2023-04-27T00:03:46.827Z,63.90
2023-04-27T00:04:48.548Z,64.20
2023-04-27T00:05:50.959Z,64.31
2023-04-27T00:06:52.577Z,63.93
2023-04-27T00:07:54.049Z,64.36
2023-04-27T00:08:55.855Z,64.60
2023-04-27T00:09:57.447Z,64.89
2023-04-27T00:10:59.452Z,64.64
2023-04-27T00:12:01.298Z,64.65
2023-04-27T00:13:03.057Z,64.66
2023-04-27T00:14:04.624Z,64.97
2023-04-27T00:15:06.910Z,64.65
2023-04-27T00:16:08.450Z,65.06
2023-04-27T00:17:10.352Z,65.19
2023-04-27T00:18:11.752Z,65.15
2023-04-27T00:19:15.012Z,64.94
2023-04-27T00:20:18.011Z,65.16
2023-04-27T00:21:19.551Z,65.46
2023-04-27T00:22:21.083Z,64.86
2023-04-27T00:23:22.492Z,65.13
2023-04-27T00:24:23.905Z,65.43
2023-04-27T00:25:25.441Z,65.63
2023-04-27T00:26:27.052Z,65.31
2023-04-27T00:27:28.649Z,65.43
2023-04-27T00:28:30.233Z,65.54
2023-04-27T00:29:33.507Z,65.82
2023-04-27T00:30:35.429Z,66.74
2023-04-27T00:31:36.884Z,65.97
2023-04-27T00:32:38.361Z,66.23
2023-04-27T00:33:39.943Z,65.82
2023-04-27T00:34:41.353Z,65.85
2023-04-27T00:35:42.752Z,66.01
2023-04-27T00:36:44.155Z,65.77
2023-04-27T00:37:47.416Z,66.23
2023-04-27T00:38:48.870Z,66.00
2023-04-27T00:39:50.455Z,66.01
2023-04-27T00:40:52.484Z,66.12
2023-04-27T00:41:54.742Z,65.84
2023-04-27T00:42:56.303Z,66.09
2023-04-27T00:43:58.015Z,65.97
2023-04-27T00:45:01.676Z,65.79
2023-04-27T00:46:03.293Z,66.05
2023-04-27T00:47:05.408Z,65.81
2023-04-27T00:48:06.931Z,66.12
2023-04-27T00:49:08.861Z,66.02
2023-04-27T00:50:11.449Z,66.06
2023-04-27T00:51:13.082Z,65.98
2023-04-27T00:52:14.870Z,65.93
2023-04-27T00:53:18.234Z,66.37
2023-04-27T00:54:23.159Z,66.61
2023-04-27T00:55:24.925Z,66.13
2023-04-27T00:56:26.427Z,66.46
2023-04-27T00:57:27.878Z,66.54
2023-04-27T00:58:29.621Z,66.58
2023-04-27T00:59:31.270Z,66.42
2023-04-27T01:00:35.443Z,67.22
2023-04-27T01:01:37.021Z,66.57
2023-04-27T01:02:39.579Z,66.76
2023-04-27T01:03:41.305Z,66.77
2023-04-27T01:04:42.854Z,66.72
2023-04-27T01:05:44.252Z,66.95
2023-04-27T01:06:45.798Z,66.62
2023-04-27T01:07:47.269Z,66.79
2023-04-27T01:08:48.757Z,66.91
2023-04-27T01:09:50.237Z,67.39
2023-04-27T01:10:52.276Z,66.92
2023-04-27T01:11:53.683Z,67.31
2023-04-27T01:12:55.607Z,67.50
2023-04-27T01:13:57.185Z,66.96
2023-04-27T01:14:58.828Z,66.89
2023-04-27T01:16:00.217Z,67.59
2023-04-27T01:17:01.897Z,67.13
2023-04-27T01:18:03.716Z,67.24
2023-04-27T01:19:07.108Z,67.41
2023-04-27T01:20:09.361Z,67.77
2023-04-27T01:21:10.969Z,67.52
2023-04-27T01:22:14.529Z,67.64
2023-04-27T01:23:17.272Z,67.49
2023-04-27T01:24:19.123Z,67.75
2023-04-27T01:25:20.583Z,67.69
2023-04-27T01:26:22.049Z,67.55
2023-04-27T01:27:23.707Z,68.09
2023-04-27T01:28:25.198Z,67.84
2023-04-27T01:29:26.780Z,68.47
2023-04-27T01:30:29.380Z,68.07
2023-04-27T01:32:59.583Z,68.19
2023-04-27T01:34:01.497Z,67.98
2023-04-27T01:35:03.014Z,68.00
2023-04-27T01:36:04.718Z,67.87
2023-04-27T01:37:06.159Z,68.03
2023-04-27T01:38:07.802Z,68.07
2023-04-27T01:39:09.360Z,67.87
2023-04-27T01:40:11.311Z,68.36
2023-04-27T01:41:12.970Z,68.47
2023-04-27T01:42:16.521Z,68.18
2023-04-27T01:43:17.978Z,68.30
2023-04-27T01:44:20.452Z,68.39
2023-04-27T01:45:22.574Z,68.37
2023-04-27T01:46:24.043Z,68.55
2023-04-27T01:47:26.848Z,68.64
2023-04-27T01:48:28.271Z,68.81
2023-04-27T01:49:29.696Z,69.07
2023-04-27T01:50:31.265Z,68.86
2023-04-27T01:51:32.951Z,68.98
2023-04-27T01:52:34.701Z,68.68
2023-04-27T01:53:37.274Z,68.88
2023-04-27T01:54:38.654Z,69.25
2023-04-27T01:55:41.326Z,69.41
2023-04-27T01:56:42.834Z,69.96
2023-04-27T01:57:44.357Z,69.30
2023-04-27T01:58:46.084Z,69.23
2023-04-27T01:59:48.206Z,69.02
2023-04-27T02:00:49.992Z,69.52
2023-04-27T02:01:51.383Z,69.57
2023-04-27T02:02:53.610Z,69.33
2023-04-27T02:03:55.522Z,69.06
2023-04-27T02:04:57.170Z,69.56
2023-04-27T02:06:01.024Z,69.68
2023-04-27T02:07:02.791Z,69.57
2023-04-27T02:08:04.592Z,69.50
2023-04-27T02:09:06.709Z,69.60
2023-04-27T02:10:08.542Z,69.52
2023-04-27T02:11:10.112Z,69.38
2023-04-27T02:12:11.513Z,69.77
2023-04-27T02:13:13.023Z,69.64
2023-04-27T02:14:14.377Z,69.84
2023-04-27T02:15:16.007Z,69.54
2023-04-27T02:16:17.519Z,69.58
2023-04-27T02:17:19.089Z,69.83
2023-04-27T02:18:20.893Z,69.65
2023-04-27T02:19:22.677Z,69.79
2023-04-27T02:20:24.141Z,69.68
2023-04-27T02:21:25.838Z,69.79
2023-04-27T02:22:27.262Z,69.91
2023-04-27T02:23:28.658Z,69.75
2023-04-27T02:24:30.574Z,70.10
2023-04-27T02:25:32.055Z,69.90
2023-04-27T02:26:33.433Z,69.47
2023-04-27T02:27:40.184Z,69.64
2023-04-27T02:28:42.176Z,69.83
2023-04-27T02:29:44.192Z,69.74
2023-04-27T02:30:46.569Z,69.64
2023-04-27T02:31:48.193Z,69.86
2023-04-27T02:32:49.653Z,69.91
2023-04-27T02:33:51.292Z,69.86
2023-04-27T02:34:52.843Z,70.09
2023-04-27T02:35:54.238Z,70.60
2023-04-27T02:36:55.922Z,70.06
2023-04-27T02:37:57.387Z,70.20
2023-04-27T02:38:58.853Z,70.86
2023-04-27T02:40:00.427Z,70.38
2023-04-27T02:41:01.874Z,70.37
2023-04-27T02:42:03.484Z,70.45
2023-04-27T02:43:04.899Z,71.09
2023-04-27T02:44:06.371Z,71.08
2023-04-27T02:45:08.078Z,71.06
2023-04-27T02:46:11.529Z,71.47
2023-04-27T02:47:13.073Z,71.71
2023-04-27T02:48:14.536Z,72.12
2023-04-27T02:49:16.570Z,71.72
2023-04-27T02:50:18.410Z,71.79
2023-04-27T02:51:19.833Z,71.89
2023-04-27T02:52:21.508Z,71.70
2023-04-27T02:53:22.962Z,71.77
2023-04-27T02:54:24.849Z,71.80
2023-04-27T02:55:26.871Z,71.37
2023-04-27T02:56:28.291Z,71.57
2023-04-27T02:57:30.047Z,71.55
2023-04-27T02:58:31.547Z,71.91
2023-04-27T02:59:32.921Z,72.05
2023-04-27T03:00:34.382Z,72.18
2023-04-27T03:01:35.989Z,72.07
2023-04-27T03:02:37.798Z,72.64
2023-04-27T03:03:39.521Z,72.32
2023-04-27T03:04:41.331Z,72.84
2023-04-27T03:05:42.944Z,72.11
2023-04-27T03:06:44.428Z,72.32
2023-04-27T03:07:45.877Z,72.30
2023-04-27T03:08:47.260Z,72.61
2023-04-27T03:09:48.686Z,72.16
2023-04-27T03:10:50.293Z,72.16
2023-04-27T03:11:52.138Z,72.42
2023-04-27T03:12:53.554Z,72.82
2023-04-27T03:13:56.325Z,73.32
2023-04-27T03:14:58.947Z,73.04
2023-04-27T03:16:00.458Z,72.64
2023-04-27T03:17:02.527Z,73.10
2023-04-27T03:18:04.303Z,73.12
2023-04-27T03:19:06.487Z,72.97
2023-04-27T03:20:09.351Z,73.78
2023-04-27T03:21:12.088Z,72.90
2023-04-27T03:22:13.567Z,73.01
2023-04-27T03:23:16.831Z,73.09
2023-04-27T03:24:19.319Z,72.62
2023-04-27T03:25:21.280Z,73.03
2023-04-27T03:26:23.156Z,73.11
2023-04-27T03:27:24.674Z,73.41
2023-04-27T03:28:26.126Z,73.14
2023-04-27T03:29:30.530Z,73.61
2023-04-27T03:30:32.035Z,73.63
2023-04-27T03:31:33.449Z,73.23
2023-04-27T03:32:35.054Z,73.36
2023-04-27T03:33:37.178Z,73.27
2023-04-27T03:34:38.651Z,73.71
2023-04-27T03:35:40.478Z,73.34
2023-04-27T03:36:41.921Z,73.69
2023-04-27T03:37:45.431Z,73.54
2023-04-27T03:38:46.920Z,73.35
2023-04-27T03:39:48.673Z,73.59
2023-04-27T03:40:50.645Z,73.63
2023-04-27T03:41:52.154Z,73.71
2023-04-27T03:42:53.679Z,73.60
2023-04-27T03:43:55.304Z,73.35
2023-04-27T03:44:56.768Z,73.64
2023-04-27T03:45:58.278Z,73.36
2023-04-27T03:47:01.036Z,73.47
2023-04-27T03:48:02.571Z,73.61
2023-04-27T03:49:04.250Z,73.74
2023-04-27T03:50:06.281Z,73.76
2023-04-27T03:51:07.646Z,73.62
2023-04-27T03:52:09.502Z,73.75
2023-04-27T03:53:10.909Z,73.70
2023-04-27T03:54:12.291Z,73.84
2023-04-27T03:55:13.885Z,73.73
2023-04-27T03:56:15.813Z,73.97
2023-04-27T03:57:17.248Z,73.98
2023-04-27T03:58:18.750Z,74.17
2023-04-27T03:59:38.684Z,74.16
2023-04-27T04:00:40.356Z,74.47
2023-04-27T04:01:41.856Z,74.06
2023-04-27T04:02:44.277Z,75.04
2023-04-27T04:03:47.455Z,74.31
2023-04-27T04:04:49.256Z,75.06
2023-04-27T04:05:52.247Z,74.98
2023-04-27T04:06:53.789Z,74.64
2023-04-27T04:07:55.579Z,74.81
2023-04-27T04:08:57.827Z,75.04
2023-04-27T04:09:59.380Z,75.31
2023-04-27T04:11:00.927Z,75.38
2023-04-27T04:12:03.095Z,75.34
2023-04-27T04:13:04.816Z,74.72
2023-04-27T04:14:06.241Z,75.16
2023-04-27T04:15:08.180Z,74.75
2023-04-27T04:16:09.888Z,74.74
2023-04-27T04:17:11.368Z,75.05
2023-04-27T04:18:15.262Z,75.04
2023-04-27T04:19:17.129Z,74.68
2023-04-27T04:20:18.771Z,75.28
2023-04-27T04:21:20.352Z,74.90
2023-04-27T04:22:22.782Z,75.16
2023-04-27T04:23:24.498Z,75.18
2023-04-27T04:24:25.920Z,75.27
2023-04-27T04:25:27.530Z,75.68
2023-04-27T04:26:30.126Z,76.07
2023-04-27T04:27:31.676Z,75.28
2023-04-27T04:28:33.097Z,75.59
2023-04-27T04:29:34.759Z,75.53
2023-04-27T04:30:36.117Z,75.56
2023-04-27T04:31:37.844Z,75.85
2023-04-27T04:32:39.655Z,75.84
2023-04-27T04:33:41.319Z,75.64
2023-04-27T04:34:42.706Z,75.47
2023-04-27T04:35:44.267Z,75.64
2023-04-27T04:36:45.861Z,76.02
2023-04-27T04:37:47.350Z,75.77
2023-04-27T04:38:49.260Z,75.61
2023-04-27T04:39:51.615Z,75.79
2023-04-27T04:40:53.180Z,75.51
2023-04-27T04:41:54.584Z,75.50
2023-04-27T04:42:57.080Z,75.68
2023-04-27T04:43:58.941Z,75.56
2023-04-27T04:45:00.369Z,75.18
2023-04-27T04:46:01.854Z,75.81
2023-04-27T04:47:03.460Z,75.54
2023-04-27T04:48:05.337Z,75.58
2023-04-27T04:49:07.423Z,75.46
2023-04-27T04:50:09.600Z,75.76
2023-04-27T04:51:11.145Z,75.51
2023-04-27T04:52:12.565Z,75.33
2023-04-27T04:53:14.127Z,75.19
2023-04-27T04:54:16.789Z,75.52
2023-04-27T04:55:18.439Z,75.45
2023-04-27T04:56:20.526Z,75.44
2023-04-27T04:57:22.099Z,75.13
2023-04-27T04:58:23.688Z,75.10
2023-04-27T04:59:25.676Z,75.09
2023-04-27T05:00:27.300Z,75.04
2023-04-27T05:01:28.797Z,74.98
2023-04-27T05:02:30.369Z,75.11
2023-04-27T05:03:32.429Z,75.04
2023-04-27T05:04:34.298Z,74.83
2023-04-27T05:05:35.855Z,74.85
2023-04-27T05:06:37.289Z,74.80
2023-04-27T05:07:38.718Z,74.81
2023-04-27T05:08:40.224Z,74.65
2023-04-27T05:09:42.096Z,74.37
2023-04-27T05:10:53.324Z,74.37
2023-04-27T05:11:54.876Z,74.23
2023-04-27T05:12:56.320Z,74.17
2023-04-27T05:13:57.745Z,73.89
2023-04-27T05:14:59.479Z,74.14
2023-04-27T05:16:05.613Z,73.72
2023-04-27T05:17:07.314Z,73.75
2023-04-27T05:18:08.857Z,73.54
2023-04-27T05:19:10.327Z,73.52
2023-04-27T05:20:11.981Z,73.35
2023-04-27T05:21:15.271Z,73.17
2023-04-27T05:22:16.808Z,72.96
2023-04-27T05:23:18.199Z,73.09
2023-04-27T05:24:19.765Z,72.73
2023-04-27T05:25:21.338Z,72.22
2023-04-27T05:26:22.788Z,72.21
2023-04-27T05:27:24.237Z,72.03
2023-04-27T05:28:25.659Z,71.91
2023-04-27T05:29:27.439Z,71.83
2023-04-27T05:30:29.086Z,71.12
2023-04-27T05:31:30.504Z,71.18
2023-04-27T05:32:33.093Z,70.78
2023-04-27T05:33:34.745Z,70.93
2023-04-27T05:34:36.379Z,70.93
2023-04-27T05:35:37.852Z,70.88
2023-04-27T05:36:39.433Z,70.52
2023-04-27T05:37:40.963Z,70.76
2023-04-27T05:38:42.752Z,70.14
2023-04-27T05:39:44.341Z,70.03
2023-04-27T05:40:45.828Z,69.86
2023-04-27T05:41:47.283Z,69.83
2023-04-27T05:42:49.056Z,69.42
2023-04-27T05:43:50.729Z,68.99
2023-04-27T05:44:52.190Z,68.60
2023-04-27T05:45:53.806Z,68.68
2023-04-27T05:46:55.678Z,68.33
2023-04-27T05:47:57.110Z,68.35
2023-04-27T05:48:58.870Z,68.36
2023-04-27T05:50:00.372Z,68.40
2023-04-27T05:51:03.038Z,68.53
2023-04-27T05:52:04.482Z,68.71
2023-04-27T05:53:06.408Z,68.38
2023-04-27T05:54:07.887Z,68.47
2023-04-27T05:55:10.120Z,68.42
2023-04-27T05:56:11.631Z,68.18
2023-04-27T05:57:13.392Z,68.39
2023-04-27T05:58:15.517Z,68.28
2023-04-27T05:59:17.253Z,68.23
2023-04-27T06:00:21.612Z,67.36
2023-04-27T06:01:23.207Z,67.94
2023-04-27T06:02:25.042Z,67.76
2023-04-27T06:03:26.943Z,67.46
2023-04-27T06:04:29.190Z,67.22
2023-04-27T06:05:30.752Z,66.91
2023-04-27T06:06:32.881Z,66.95
2023-04-27T06:07:34.327Z,66.73
2023-04-27T06:08:38.699Z,66.10
2023-04-27T06:09:40.950Z,66.42
2023-04-27T06:10:42.410Z,66.37
2023-04-27T06:11:44.248Z,66.19
2023-04-27T06:12:46.396Z,66.62
2023-04-27T06:13:47.914Z,66.69
2023-04-27T06:14:49.350Z,65.39
2023-04-27T06:15:50.828Z,65.39
2023-04-27T06:16:52.434Z,64.97
2023-04-27T06:17:53.934Z,64.41
2023-04-27T06:18:55.617Z,64.14
2023-04-27T06:19:57.088Z,64.74
2023-04-27T06:21:00.857Z,64.08
2023-04-27T06:22:03.426Z,64.12
2023-04-27T06:23:04.965Z,64.07
2023-04-27T06:24:06.654Z,64.23
2023-04-27T06:25:08.419Z,63.82
2023-04-27T06:26:10.490Z,63.09
2023-04-27T06:27:12.627Z,63.32
2023-04-27T06:28:14.083Z,63.45
2023-04-27T06:29:15.688Z,63.67
2023-04-27T06:30:17.331Z,63.87
2023-04-27T06:31:18.828Z,63.80
2023-04-27T06:32:20.438Z,64.09
2023-04-27T06:33:21.987Z,63.75
2023-04-27T06:34:23.380Z,63.20
2023-04-27T06:35:24.877Z,63.07
2023-04-27T06:36:27.273Z,63.55
2023-04-27T06:37:29.488Z,63.60
2023-04-27T06:38:31.449Z,63.33
2023-04-27T06:39:33.099Z,63.37
2023-04-27T06:40:35.178Z,63.26
2023-04-27T06:41:36.593Z,62.95
2023-04-27T06:42:38.099Z,62.83
2023-04-27T06:43:39.533Z,63.04
2023-04-27T06:44:41.333Z,63.29
2023-04-27T06:45:42.964Z,63.43
2023-04-27T06:46:44.409Z,62.94
2023-04-27T06:47:45.821Z,62.75
2023-04-27T06:48:47.291Z,62.83
2023-04-27T06:49:49.888Z,62.21
2023-04-27T06:50:51.500Z,61.92
2023-04-27T06:51:53.084Z,61.35
2023-04-27T06:52:54.650Z,61.10
2023-04-27T06:53:56.715Z,61.38
2023-04-27T06:54:58.166Z,61.24
2023-04-27T06:55:59.719Z,61.26
2023-04-27T06:57:01.192Z,61.42
2023-04-27T06:58:02.788Z,60.70
2023-04-27T06:59:04.402Z,61.19
2023-04-27T07:00:06.606Z,60.30
2023-04-27T07:01:08.196Z,60.49
2023-04-27T07:02:10.378Z,60.51
2023-04-27T07:03:12.498Z,60.44
2023-04-27T07:04:14.189Z,59.76
2023-04-27T07:05:15.727Z,59.51
2023-04-27T07:06:17.174Z,60.09
2023-04-27T07:07:18.662Z,59.36
2023-04-27T07:08:20.358Z,58.75
2023-04-27T07:10:28.012Z,59.30
2023-04-27T07:11:29.440Z,58.68
2023-04-27T07:12:30.903Z,57.36
2023-04-27T07:13:32.610Z,57.61
2023-04-27T07:14:34.211Z,57.64
2023-04-27T07:15:35.960Z,57.20
2023-04-27T07:16:38.722Z,56.59
2023-04-27T07:17:40.913Z,56.13
2023-04-27T07:18:43.683Z,56.60
2023-04-27T07:19:45.169Z,57.01
2023-04-27T07:20:46.565Z,56.98
2023-04-27T07:21:48.003Z,57.40
2023-04-27T07:22:49.708Z,56.89
2023-04-27T07:23:51.303Z,56.90
2023-04-27T07:24:53.478Z,56.83
2023-04-27T07:25:55.031Z,56.48
2023-04-27T07:26:58.731Z,56.97
2023-04-27T07:28:00.150Z,56.53
2023-04-27T07:29:08.253Z,56.65
2023-04-27T07:30:13.658Z,56.83
2023-04-27T07:31:15.443Z,57.16
2023-04-27T07:32:17.403Z,56.94
2023-04-27T07:33:18.905Z,57.03
2023-04-27T07:34:20.421Z,56.94
2023-04-27T07:35:22.076Z,57.34
2023-04-27T07:36:23.503Z,57.06
2023-04-27T07:37:26.069Z,57.38
2023-04-27T07:38:29.474Z,56.44
2023-04-27T07:39:31.027Z,56.30
2023-04-27T07:40:33.878Z,55.92
2023-04-27T07:41:35.336Z,56.10
2023-04-27T07:42:38.888Z,55.91
2023-04-27T07:43:41.604Z,55.93
2023-04-27T07:44:43.611Z,56.18
2023-04-27T07:45:45.222Z,56.19
2023-04-27T07:46:48.297Z,55.80
2023-04-27T07:47:49.979Z,55.65
2023-04-27T07:48:51.602Z,56.17
2023-04-27T07:49:53.545Z,56.40
2023-04-27T07:50:54.965Z,55.29
2023-04-27T07:51:56.781Z,54.15
2023-04-27T07:52:59.130Z,54.19
2023-04-27T07:54:01.942Z,54.86
2023-04-27T07:55:04.082Z,54.93
2023-04-27T07:56:05.969Z,55.22
2023-04-27T07:57:09.518Z,55.18
2023-04-27T07:58:11.092Z,54.17
2023-04-27T07:59:14.179Z,54.78
2023-04-27T08:00:16.939Z,54.09
2023-04-27T08:01:20.185Z,54.61
2023-04-27T08:02:22.926Z,53.52
2023-04-27T08:03:24.748Z,52.43
2023-04-27T08:04:27.023Z,52.62
2023-04-27T08:05:29.730Z,52.16
2023-04-27T08:06:32.110Z,52.32
2023-04-27T08:07:37.166Z,51.92
2023-04-27T08:08:42.573Z,51.79
2023-04-27T08:09:44.269Z,51.67
2023-04-27T08:10:45.848Z,52.16
2023-04-27T08:11:47.306Z,52.31
2023-04-27T08:12:49.161Z,52.39
2023-04-27T08:13:50.519Z,52.38
2023-04-27T08:14:52.150Z,52.21
2023-04-27T08:15:58.724Z,52.55
2023-04-27T08:17:00.433Z,52.23
2023-04-27T08:18:02.091Z,51.77
2023-04-27T08:19:03.661Z,51.99
2023-04-27T08:20:06.394Z,51.74
2023-04-27T08:21:08.067Z,51.79
2023-04-27T08:22:09.976Z,51.30
2023-04-27T08:23:11.812Z,51.48
2023-04-27T08:24:13.264Z,51.66
2023-04-27T08:25:15.203Z,52.36
2023-04-27T08:26:17.033Z,52.83
2023-04-27T08:27:18.459Z,52.90
2023-04-27T08:28:19.969Z,53.45
2023-04-27T08:29:27.799Z,54.08
2023-04-27T08:30:30.697Z,54.54
2023-04-27T08:31:32.610Z,55.17
2023-04-27T08:32:34.279Z,55.18
2023-04-27T08:33:36.025Z,55.63
2023-04-27T08:34:37.548Z,55.97
2023-04-27T08:35:39.002Z,56.83
2023-04-27T08:36:40.558Z,57.04
2023-04-27T08:37:42.185Z,56.79
2023-04-27T08:38:44.035Z,56.60
2023-04-27T08:39:47.312Z,57.04
2023-04-27T08:40:48.799Z,57.04
2023-04-27T08:41:50.949Z,57.00
2023-04-27T08:42:57.322Z,57.11
2023-04-27T08:43:59.654Z,57.20
2023-04-27T08:45:01.282Z,56.92
2023-04-27T08:46:02.831Z,57.01
2023-04-27T08:47:04.364Z,57.48
2023-04-27T08:48:05.838Z,57.29
2023-04-27T08:49:07.984Z,57.20
2023-04-27T08:50:10.963Z,57.56
2023-04-27T08:51:14.619Z,57.25
2023-04-27T08:52:17.027Z,57.44
2023-04-27T08:53:20.806Z,57.38
2023-04-27T08:54:22.238Z,57.77
2023-04-27T08:55:23.668Z,57.88
2023-04-27T08:56:27.321Z,57.40
2023-04-27T08:57:28.871Z,57.09
2023-04-27T08:58:37.297Z,57.10
2023-04-27T08:59:39.951Z,56.56
2023-04-27T09:00:44.477Z,56.91
2023-04-27T09:01:53.036Z,56.50
2023-04-27T09:02:55.341Z,56.54
2023-04-27T09:03:58.733Z,55.82
2023-04-27T09:05:00.696Z,56.32
2023-04-27T09:06:05.557Z,55.46
2023-04-27T09:07:15.176Z,55.27
2023-04-27T09:08:16.780Z,55.28
2023-04-27T09:09:22.828Z,54.97
2023-04-27T09:10:24.270Z,55.10
2023-04-27T09:11:32.404Z,55.25
2023-04-27T09:12:34.070Z,55.07
2023-04-27T09:13:37.424Z,54.42
2023-04-27T09:14:38.843Z,54.21
2023-04-27T09:15:46.424Z,53.74
2023-04-27T09:16:58.574Z,53.21
2023-04-27T09:18:00.116Z,53.62
2023-04-27T09:19:02.127Z,51.93
2023-04-27T09:20:12.642Z,52.58
2023-04-27T09:21:21.790Z,53.07
2023-04-27T09:22:23.170Z,52.90
2023-04-27T09:23:33.343Z,52.64
2023-04-27T09:24:35.353Z,52.13
2023-04-27T09:25:36.785Z,52.19
2023-04-27T09:26:38.374Z,51.93
2023-04-27T09:27:43.490Z,50.93
2023-04-27T09:28:47.827Z,51.65
2023-04-27T09:29:49.533Z,51.64
2023-04-27T09:30:54.113Z,52.44
2023-04-27T09:31:55.615Z,52.78
2023-04-27T09:33:01.350Z,52.56
2023-04-27T09:34:03.195Z,53.23
2023-04-27T09:35:20.016Z,53.79
2023-04-27T09:36:22.701Z,53.27
2023-04-27T09:37:26.340Z,53.49
2023-04-27T09:38:29.038Z,53.63
2023-04-27T09:39:30.786Z,53.32
2023-04-27T09:40:32.941Z,53.45
2023-04-27T09:41:34.964Z,53.46
2023-04-27T09:42:36.877Z,54.30
2023-04-27T09:43:38.988Z,54.10
2023-04-27T09:44:40.554Z,54.29
2023-04-27T09:45:42.792Z,54.39
2023-04-27T09:46:48.113Z,54.62
2023-04-27T09:47:49.633Z,54.94
2023-04-27T09:48:51.936Z,55.22
2023-04-27T09:49:53.461Z,54.98
2023-04-27T09:50:55.779Z,54.90
2023-04-27T09:51:58.185Z,55.14
2023-04-27T09:53:00.158Z,55.36
2023-04-27T09:54:03.952Z,54.97
2023-04-27T09:55:11.541Z,55.50
2023-04-27T09:56:29.085Z,55.15
2023-04-27T09:57:44.873Z,55.34
2023-04-27T09:59:01.075Z,55.57
2023-04-27T10:00:25.161Z,55.57
2023-04-27T10:01:42.819Z,55.44
2023-04-27T10:03:20.288Z,55.38
2023-04-27T10:04:30.781Z,57.39
2023-04-27T10:05:46.060Z,57.72
2023-04-27T10:07:12.027Z,59.62
2023-04-27T10:08:14.642Z,60.08
2023-04-27T10:09:22.956Z,61.33
2023-04-27T10:10:24.939Z,61.60
2023-04-27T10:11:40.997Z,62.48
2023-04-27T10:12:42.956Z,61.95
2023-04-27T10:13:55.070Z,62.24
2023-04-27T10:14:58.382Z,62.61
2023-04-27T10:16:15.912Z,64.65
2023-04-27T10:17:19.260Z,64.13
2023-04-27T10:18:30.289Z,64.16
2023-04-27T10:19:31.950Z,64.14
2023-04-27T10:20:37.287Z,64.23
2023-04-27T10:22:02.797Z,64.68
2023-04-27T10:23:04.646Z,64.97
2023-04-27T10:24:09.150Z,64.62
2023-04-27T10:25:17.121Z,65.99
2023-04-27T10:26:26.171Z,65.21
2023-04-27T10:27:27.598Z,64.45
2023-04-27T10:28:38.193Z,64.33
2023-04-27T10:29:42.417Z,64.34
2023-04-27T10:30:46.587Z,63.94
2023-04-27T10:31:48.311Z,63.35
2023-04-27T10:32:51.991Z,63.20
2023-04-27T10:33:53.655Z,62.94
2023-04-27T10:35:08.907Z,62.00
2023-04-27T10:36:14.919Z,61.96
2023-04-27T10:37:19.801Z,61.92
2023-04-27T10:38:27.884Z,60.22
2023-04-27T10:39:47.135Z,60.43
2023-04-27T10:41:00.842Z,60.17
2023-04-27T10:42:02.818Z,58.69
2023-04-27T10:43:09.524Z,60.27
2023-04-27T10:44:17.135Z,59.18
2023-04-27T10:45:31.137Z,58.81
2023-04-27T10:46:35.673Z,58.20
2023-04-27T10:47:47.130Z,58.32
2023-04-27T10:48:48.621Z,58.17
2023-04-27T10:49:56.130Z,58.54
2023-04-27T10:50:58.729Z,58.36
2023-04-27T10:52:04.137Z,57.42
2023-04-27T10:53:06.755Z,57.35
2023-04-27T10:54:08.348Z,56.27
2023-04-27T10:55:21.165Z,57.21
2023-04-27T10:56:24.197Z,57.64
2023-04-27T10:57:26.064Z,57.17
2023-04-27T10:58:37.854Z,57.14
2023-04-27T10:59:52.236Z,57.18
2023-04-27T11:00:53.953Z,57.74
2023-04-27T11:01:55.492Z,56.27
2023-04-27T11:03:10.493Z,56.01
2023-04-27T11:04:12.455Z,55.19
2023-04-27T11:05:19.003Z,56.02
2023-04-27T11:06:20.627Z,55.67
2023-04-27T11:07:27.475Z,55.37
2023-04-27T11:08:30.291Z,55.69
2023-04-27T11:09:31.810Z,54.49
2023-04-27T11:10:37.088Z,54.97
2023-04-27T11:11:43.799Z,54.84
2023-04-27T11:12:45.963Z,54.89
2023-04-27T11:13:49.272Z,53.47
2023-04-27T11:14:56.927Z,53.64
2023-04-27T11:15:59.317Z,52.47
2023-04-27T11:17:00.817Z,52.74
2023-04-27T11:18:06.297Z,53.06
2023-04-27T11:19:08.069Z,52.44
2023-04-27T11:20:10.023Z,52.78
2023-04-27T11:21:22.962Z,52.71
2023-04-27T11:22:24.889Z,52.10
2023-04-27T11:23:40.777Z,49.85
2023-04-27T11:24:49.819Z,51.50
2023-04-27T11:25:51.801Z,51.09
2023-04-27T11:26:53.325Z,51.21
2023-04-27T11:27:54.927Z,50.75
2023-04-27T11:29:11.797Z,49.69
2023-04-27T11:30:21.141Z,50.66
2023-04-27T11:31:22.738Z,50.75
2023-04-27T11:32:25.043Z,50.38
2023-04-27T11:33:27.554Z,49.56
2023-04-27T11:34:33.987Z,49.67
2023-04-27T11:35:35.932Z,49.49
2023-04-27T11:36:37.723Z,49.07
2023-04-27T11:37:39.310Z,49.03
2023-04-27T11:38:41.787Z,49.27
2023-04-27T11:39:45.143Z,49.39
2023-04-27T11:40:58.221Z,49.18
2023-04-27T11:42:21.270Z,48.48
2023-04-27T11:43:25.361Z,48.72
2023-04-27T11:44:27.168Z,47.83
2023-04-27T11:45:29.273Z,48.27
2023-04-27T11:46:31.252Z,48.17
2023-04-27T11:47:34.961Z,48.25
2023-04-27T11:48:38.453Z,48.33
2023-04-27T11:49:39.982Z,47.70
2023-04-27T11:50:48.299Z,47.75
2023-04-27T11:51:50.515Z,47.17
2023-04-27T11:52:52.752Z,47.15
2023-04-27T11:53:54.284Z,46.00
2023-04-27T11:54:56.087Z,46.19
2023-04-27T11:56:10.278Z,46.33
2023-04-27T11:57:13.135Z,45.04
2023-04-27T11:58:15.645Z,44.62
2023-04-27T11:59:22.460Z,44.21
2023-04-27T12:00:24.124Z,44.76
2023-04-27T12:01:36.966Z,45.00
2023-04-27T12:02:41.518Z,43.49
2023-04-27T12:03:43.286Z,41.52
2023-04-27T12:04:45.322Z,42.94
2023-04-27T12:05:49.322Z,42.56
2023-04-27T12:06:50.885Z,42.53
2023-04-27T12:07:52.853Z,43.16
2023-04-27T12:08:56.352Z,43.08
2023-04-27T12:09:59.528Z,42.78
2023-04-27T12:11:02.412Z,41.69
2023-04-27T12:12:03.985Z,39.76
2023-04-27T12:13:05.848Z,39.18
2023-04-27T12:14:07.408Z,38.78
2023-04-27T12:15:09.420Z,37.74
2023-04-27T12:16:11.115Z,37.78
2023-04-27T12:17:13.573Z,37.51
2023-04-27T12:18:16.402Z,37.50
2023-04-27T12:19:18.277Z,37.68
2023-04-27T12:20:20.536Z,36.84
2023-04-27T12:21:22.259Z,37.04
2023-04-27T12:22:23.768Z,37.28
2023-04-27T12:23:25.673Z,37.30
2023-04-27T12:24:27.229Z,38.36
2023-04-27T12:25:28.721Z,38.02
2023-04-27T12:26:30.876Z,37.62
2023-04-27T12:27:32.429Z,36.00
2023-04-27T12:28:34.188Z,36.35
2023-04-27T12:29:36.408Z,35.67
2023-04-27T12:30:37.955Z,35.97
2023-04-27T12:31:39.554Z,35.52
2023-04-27T12:32:41.212Z,35.65
2023-04-27T12:33:43.042Z,36.27
2023-04-27T12:34:46.104Z,35.71
2023-04-27T12:35:47.589Z,36.35
2023-04-27T12:36:49.076Z,35.84
2023-04-27T12:37:51.701Z,35.44
2023-04-27T12:38:58.424Z,34.82
2023-04-27T12:40:00.239Z,35.48
2023-04-27T12:41:01.952Z,35.30
2023-04-27T12:42:04.002Z,34.23
2023-04-27T12:43:07.834Z,33.82
2023-04-27T12:44:10.331Z,34.13
2023-04-27T12:45:11.938Z,34.22
2023-04-27T12:46:13.445Z,33.18
2023-04-27T12:47:27.786Z,32.47
2023-04-27T12:48:36.748Z,32.17
2023-04-27T12:49:38.577Z,31.47
2023-04-27T12:50:40.086Z,31.85
2023-04-27T12:51:42.015Z,31.41
2023-04-27T12:52:43.543Z,30.04
2023-04-27T12:53:45.133Z,29.07
2023-04-27T12:54:46.852Z,30.70
2023-04-27T12:55:49.706Z,28.93
2023-04-27T12:56:51.631Z,29.37
2023-04-27T12:57:53.133Z,29.95
2023-04-27T12:58:55.049Z,29.22
2023-04-27T12:59:57.420Z,28.52
2023-04-27T13:01:00.188Z,28.63
2023-04-27T13:02:02.571Z,28.48
2023-04-27T13:03:06.046Z,28.87
2023-04-27T13:04:10.200Z,29.38
2023-04-27T13:05:12.151Z,29.62
2023-04-27T13:06:13.653Z,29.23
2023-04-27T13:07:15.247Z,29.30
2023-04-27T13:08:16.884Z,29.78
2023-04-27T13:09:18.338Z,29.79
2023-04-27T13:10:20.417Z,29.63
2023-04-27T13:11:23.807Z,29.41
2023-04-27T13:12:25.496Z,29.99
2023-04-27T13:13:27.026Z,29.49
2023-04-27T13:14:28.653Z,30.04
2023-04-27T13:15:31.239Z,29.59
2023-04-27T13:16:32.980Z,29.88
2023-04-27T13:17:34.650Z,29.48
2023-04-27T13:18:36.501Z,29.61
2023-04-27T13:19:38.046Z,29.59
2023-04-27T13:20:39.678Z,30.16
2023-04-27T13:21:41.263Z,29.89
2023-04-27T13:22:42.816Z,30.21
2023-04-27T13:23:44.400Z,29.22
2023-04-27T13:24:46.328Z,29.04
2023-04-27T13:25:49.127Z,28.67
2023-04-27T13:26:50.708Z,29.14
2023-04-27T13:27:53.276Z,27.34
2023-04-27T13:28:54.842Z,27.33
2023-04-27T13:29:56.331Z,26.27
2023-04-27T13:30:59.621Z,26.82
2023-04-27T13:32:01.982Z,26.63
2023-04-27T13:33:18.393Z,26.14